KGSB/GSB METAR and TAF weather

Enter ICAO airport designator
Station Type Date Time Source
KGSB METAR 2020/04/07 16:56 UTC NOAA

KGSB 071656Z AUTO 25005KT 10SM CLR 26/14 A2994 RMK AO2 SLP141 T02600144 $


Station Type Date Time Source
KGSB Decoded METAR 2020/04/07 16:56 UTC NOAA

Seymour-Johnson Air Force Base, NC, United States (KGSB) 35-20N 077-58W
Apr 07, 2020 - 12:56 PM EDT / 2020.04.07 1656 UTC
Wind: from the WSW (250 degrees) at 6 MPH (5 KT):0
Visibility: 10 mile(s):0
Sky conditions: clear
Temperature: 78.8 F (26.0 C)
Dew Point: 57.9 F (14.4 C)
Relative Humidity: 48%
Pressure (altimeter): 29.94 in. Hg (1013 hPa)
ob: KGSB 071656Z AUTO 25005KT 10SM CLR 26/14 A2994 RMK AO2 SLP141 T02600144
cycle: 17

Station Type Date Time Source
KGSB TAF 2020/04/07 12:09 UTC NOAA

TAF TAF KGSB 071200Z 0712/0818 26006KT 9999 SKC QNH2996INS
BECMG 0714/0715 25010G15KT 9999 FEW050 QNH2990INS
BECMG 0718/0719 25006KT 9999 FEW050 QNH2985INS
TEMPO 0720/0724 25015G25KT 6000 -TSRA BKN030CB
BECMG 0814/0815 25010G18KT 9999 FEW030 QNH2978INS TX28/0718Z TN13/0712Z

Example: see airport list